sensor_id;sensor_type;location;lat;lon;timestamp;temperature;humidity
782;DHT22;374;52.568;13.402;2023-06-24T00:02:06;19.30;99.90
782;DHT22;374;52.568;13.402;2023-06-24T00:04:31;18.20;99.90
782;DHT22;374;52.568;13.402;2023-06-24T00:06:57;19.60;99.90
782;DHT22;374;52.568;13.402;2023-06-24T00:09:28;18.30;99.90
782;DHT22;374;52.568;13.402;2023-06-24T00:11:55;17.20;99.90
782;DHT22;374;52.568;13.402;2023-06-24T00:14:21;19.60;99.90
782;DHT22;374;52.568;13.402;2023-06-24T00:16:50;18.40;99.90
782;DHT22;374;52.568;13.402;2023-06-24T00:19:19;17.60;99.90
782;DHT22;374;52.568;13.402;2023-06-24T00:21:44;17.30;99.90
782;DHT22;374;52.568;13.402;2023-06-24T00:24:10;17.50;99.90
782;DHT22;374;52.568;13.402;2023-06-24T00:26:35;17.70;99.90
782;DHT22;374;52.568;13.402;2023-06-24T00:29:01;17.80;99.90
782;DHT22;374;52.568;13.402;2023-06-24T00:31:26;17.10;99.90
782;DHT22;374;52.568;13.402;2023-06-24T00:33:52;18.10;99.90
782;DHT22;374;52.568;13.402;2023-06-24T00:36:18;19.10;99.90
782;DHT22;374;52.568;13.402;2023-06-24T00:38:43;19.40;99.90
782;DHT22;374;52.568;13.402;2023-06-24T00:41:10;19.40;99.90
782;DHT22;374;52.568;13.402;2023-06-24T00:43:35;19.40;99.90
782;DHT22;374;52.568;13.402;2023-06-24T00:46:01;18.60;99.90
782;DHT22;374;52.568;13.402;2023-06-24T00:48:26;17.90;99.90
782;DHT22;374;52.568;13.402;2023-06-24T00:50:52;17.20;99.90
782;DHT22;374;52.568;13.402;2023-06-24T00:53:18;19.10;99.90
782;DHT22;374;52.568;13.402;2023-06-24T00:55:44;19.20;99.90
782;DHT22;374;52.568;13.402;2023-06-24T00:58:11;19.10;99.90
782;DHT22;374;52.568;13.402;2023-06-24T01:00:42;17.30;99.90
782;DHT22;374;52.568;13.402;2023-06-24T01:03:09;18.80;99.90
782;DHT22;374;52.568;13.402;2023-06-24T01:05:34;17.20;99.90
782;DHT22;374;52.568;13.402;2023-06-24T01:08:02;18.00;99.90
782;DHT22;374;52.568;13.402;2023-06-24T01:10:27;18.10;99.90
782;DHT22;374;52.568;13.402;2023-06-24T01:12:53;17.20;99.90
782;DHT22;374;52.568;13.402;2023-06-24T01:15:19;17.00;99.90
782;DHT22;374;52.568;13.402;2023-06-24T01:17:59;19.40;99.90
782;DHT22;374;52.568;13.402;2023-06-24T01:26:20;18.80;99.90
782;DHT22;374;52.568;13.402;2023-06-24T01:32:11;18.40;99.90
782;DHT22;374;52.568;13.402;2023-06-24T01:34:46;17.60;99.90
782;DHT22;374;52.568;13.402;2023-06-24T01:37:20;18.90;99.90
782;DHT22;374;52.568;13.402;2023-06-24T01:39:57;18.50;99.90
782;DHT22;374;52.568;13.402;2023-06-24T01:42:28;19.30;99.90
782;DHT22;374;52.568;13.402;2023-06-24T01:44:56;18.80;99.90
782;DHT22;374;52.568;13.402;2023-06-24T01:47:26;16.90;99.90
782;DHT22;374;52.568;13.402;2023-06-24T01:49:53;18.10;99.90
782;DHT22;374;52.568;13.402;2023-06-24T01:52:22;18.20;99.90
782;DHT22;374;52.568;13.402;2023-06-24T01:54:49;18.60;99.90
782;DHT22;374;52.568;13.402;2023-06-24T01:57:16;17.80;99.90
782;DHT22;374;52.568;13.402;2023-06-24T01:59:45;18.10;99.90
782;DHT22;374;52.568;13.402;2023-06-24T02:02:12;19.00;99.90
782;DHT22;374;52.568;13.402;2023-06-24T02:04:38;19.10;99.90
782;DHT22;374;52.568;13.402;2023-06-24T02:07:05;18.80;99.90
782;DHT22;374;52.568;13.402;2023-06-24T02:09:32;17.20;99.90
782;DHT22;374;52.568;13.402;2023-06-24T02:12:00;17.60;99.90
782;DHT22;374;52.568;13.402;2023-06-24T02:14:27;16.80;99.90
782;DHT22;374;52.568;13.402;2023-06-24T02:16:56;17.30;99.90
782;DHT22;374;52.568;13.402;2023-06-24T02:19:25;16.80;99.90
782;DHT22;374;52.568;13.402;2023-06-24T02:21:53;18.60;99.90
782;DHT22;374;52.568;13.402;2023-06-24T02:24:19;19.00;99.90
782;DHT22;374;52.568;13.402;2023-06-24T02:26:46;16.90;99.90
782;DHT22;374;52.568;13.402;2023-06-24T02:29:13;18.50;99.90
782;DHT22;374;52.568;13.402;2023-06-24T02:31:39;18.00;99.90
782;DHT22;374;52.568;13.402;2023-06-24T02:34:05;18.00;99.90
782;DHT22;374;52.568;13.402;2023-06-24T02:36:30;18.10;99.90
782;DHT22;374;52.568;13.402;2023-06-24T02:38:56;17.70;99.90
782;DHT22;374;52.568;13.402;2023-06-24T02:41:22;17.30;99.90
782;DHT22;374;52.568;13.402;2023-06-24T02:43:47;18.70;99.90
782;DHT22;374;52.568;13.402;2023-06-24T02:46:14;17.30;99.90
782;DHT22;374;52.568;13.402;2023-06-24T02:48:40;18.60;99.90
782;DHT22;374;52.568;13.402;2023-06-24T02:51:07;17.90;99.90
782;DHT22;374;52.568;13.402;2023-06-24T02:53:37;17.40;99.90
782;DHT22;374;52.568;13.402;2023-06-24T02:56:03;16.90;99.90
782;DHT22;374;52.568;13.402;2023-06-24T02:58:30;17.00;99.90
782;DHT22;374;52.568;13.402;2023-06-24T03:01:01;17.00;99.90
782;DHT22;374;52.568;13.402;2023-06-24T03:03:28;17.50;99.90
782;DHT22;374;52.568;13.402;2023-06-24T03:05:54;16.90;99.90
782;DHT22;374;52.568;13.402;2023-06-24T03:08:22;17.30;99.90
782;DHT22;374;52.568;13.402;2023-06-24T03:10:50;17.80;99.90
782;DHT22;374;52.568;13.402;2023-06-24T03:13:15;18.50;99.90
782;DHT22;374;52.568;13.402;2023-06-24T03:15:41;18.50;99.90
782;DHT22;374;52.568;13.402;2023-06-24T03:18:06;17.50;99.90
782;DHT22;374;52.568;13.402;2023-06-24T03:20:32;17.00;99.90
782;DHT22;374;52.568;13.402;2023-06-24T03:23:06;17.80;99.90
782;DHT22;374;52.568;13.402;2023-06-24T03:25:33;17.50;99.90
782;DHT22;374;52.568;13.402;2023-06-24T03:27:59;18.00;99.90
782;DHT22;374;52.568;13.402;2023-06-24T03:30:29;18.30;99.90
782;DHT22;374;52.568;13.402;2023-06-24T03:32:55;17.80;99.90
782;DHT22;374;52.568;13.402;2023-06-24T03:35:21;18.00;99.90
782;DHT22;374;52.568;13.402;2023-06-24T03:37:47;17.00;99.90
782;DHT22;374;52.568;13.402;2023-06-24T03:40:13;16.90;99.90
782;DHT22;374;52.568;13.402;2023-06-24T03:42:38;17.00;99.90
782;DHT22;374;52.568;13.402;2023-06-24T03:45:04;16.80;99.90
782;DHT22;374;52.568;13.402;2023-06-24T03:47:30;16.90;99.90
782;DHT22;374;52.568;13.402;2023-06-24T03:49:55;17.00;99.90
782;DHT22;374;52.568;13.402;2023-06-24T03:52:21;18.00;99.90
782;DHT22;374;52.568;13.402;2023-06-24T03:54:46;16.90;99.90
782;DHT22;374;52.568;13.402;2023-06-24T03:57:12;18.30;99.90
782;DHT22;374;52.568;13.402;2023-06-24T03:59:38;17.20;99.90
782;DHT22;374;52.568;13.402;2023-06-24T04:02:05;17.30;99.90
782;DHT22;374;52.568;13.402;2023-06-24T04:04:34;16.90;99.90
782;DHT22;374;52.568;13.402;2023-06-24T04:06:59;17.10;99.90
782;DHT22;374;52.568;13.402;2023-06-24T04:09:25;17.90;99.90
782;DHT22;374;52.568;13.402;2023-06-24T04:11:50;18.20;99.90
782;DHT22;374;52.568;13.402;2023-06-24T04:14:16;17.60;99.90
782;DHT22;374;52.568;13.402;2023-06-24T04:16:41;16.90;99.90
782;DHT22;374;52.568;13.402;2023-06-24T04:19:07;17.70;99.90
782;DHT22;374;52.568;13.402;2023-06-24T04:21:32;17.50;99.90
782;DHT22;374;52.568;13.402;2023-06-24T04:23:58;17.50;99.90
782;DHT22;374;52.568;13.402;2023-06-24T04:26:23;17.20;99.90
782;DHT22;374;52.568;13.402;2023-06-24T04:28:49;16.80;99.90
782;DHT22;374;52.568;13.402;2023-06-24T04:31:14;16.70;99.90
782;DHT22;374;52.568;13.402;2023-06-24T04:33:40;17.30;99.90
782;DHT22;374;52.568;13.402;2023-06-24T04:36:05;17.20;99.90
782;DHT22;374;52.568;13.402;2023-06-24T04:38:30;17.20;99.90
782;DHT22;374;52.568;13.402;2023-06-24T04:40:56;17.80;99.90
782;DHT22;374;52.568;13.402;2023-06-24T04:43:25;16.90;99.90
782;DHT22;374;52.568;13.402;2023-06-24T04:45:50;17.60;99.90
782;DHT22;374;52.568;13.402;2023-06-24T04:48:16;16.70;99.90
782;DHT22;374;52.568;13.402;2023-06-24T04:50:41;17.60;99.90
782;DHT22;374;52.568;13.402;2023-06-24T04:53:07;18.00;99.90
782;DHT22;374;52.568;13.402;2023-06-24T04:55:32;17.00;99.90
782;DHT22;374;52.568;13.402;2023-06-24T04:57:58;16.70;99.90
782;DHT22;374;52.568;13.402;2023-06-24T05:00:23;17.10;99.90
782;DHT22;374;52.568;13.402;2023-06-24T05:02:50;17.80;99.90
782;DHT22;374;52.568;13.402;2023-06-24T05:05:15;17.70;99.90
782;DHT22;374;52.568;13.402;2023-06-24T05:07:43;16.70;99.90
782;DHT22;374;52.568;13.402;2023-06-24T05:10:09;17.20;99.90
782;DHT22;374;52.568;13.402;2023-06-24T05:12:34;17.80;99.90
782;DHT22;374;52.568;13.402;2023-06-24T05:15:00;16.70;99.90
782;DHT22;374;52.568;13.402;2023-06-24T05:17:25;16.70;99.90
782;DHT22;374;52.568;13.402;2023-06-24T05:19:54;17.40;99.90
782;DHT22;374;52.568;13.402;2023-06-24T05:22:19;17.00;99.90
782;DHT22;374;52.568;13.402;2023-06-24T05:24:44;16.90;99.90
782;DHT22;374;52.568;13.402;2023-06-24T05:27:10;17.00;99.90
782;DHT22;374;52.568;13.402;2023-06-24T05:29:36;17.10;99.90
782;DHT22;374;52.568;13.402;2023-06-24T05:32:02;17.00;99.90
782;DHT22;374;52.568;13.402;2023-06-24T05:34:29;17.20;99.90
782;DHT22;374;52.568;13.402;2023-06-24T05:36:55;17.40;99.90
782;DHT22;374;52.568;13.402;2023-06-24T05:39:20;17.00;99.90
782;DHT22;374;52.568;13.402;2023-06-24T05:41:46;17.10;99.90
782;DHT22;374;52.568;13.402;2023-06-24T05:44:14;17.40;99.90
782;DHT22;374;52.568;13.402;2023-06-24T05:46:39;17.80;99.90
782;DHT22;374;52.568;13.402;2023-06-24T05:49:05;18.10;99.90
782;DHT22;374;52.568;13.402;2023-06-24T05:51:30;17.80;99.90
782;DHT22;374;52.568;13.402;2023-06-24T05:53:56;18.10;99.90
782;DHT22;374;52.568;13.402;2023-06-24T05:56:22;16.80;99.90
782;DHT22;374;52.568;13.402;2023-06-24T05:58:48;16.70;99.90
782;DHT22;374;52.568;13.402;2023-06-24T06:01:13;17.40;99.90
782;DHT22;374;52.568;13.402;2023-06-24T06:03:39;17.00;99.90
782;DHT22;374;52.568;13.402;2023-06-24T06:06:05;18.00;99.90
782;DHT22;374;52.568;13.402;2023-06-24T06:08:30;17.10;99.90
782;DHT22;374;52.568;13.402;2023-06-24T06:10:56;17.20;99.90
782;DHT22;374;52.568;13.402;2023-06-24T06:13:22;18.30;99.90
782;DHT22;374;52.568;13.402;2023-06-24T06:15:47;17.10;99.90
782;DHT22;374;52.568;13.402;2023-06-24T06:18:13;17.80;99.90
782;DHT22;374;52.568;13.402;2023-06-24T06:20:38;18.10;99.90
782;DHT22;374;52.568;13.402;2023-06-24T06:23:04;17.80;99.90
782;DHT22;374;52.568;13.402;2023-06-24T06:25:29;17.30;99.90
782;DHT22;374;52.568;13.402;2023-06-24T06:27:55;18.00;99.90
782;DHT22;374;52.568;13.402;2023-06-24T06:30:20;17.10;99.90
782;DHT22;374;52.568;13.402;2023-06-24T06:32:46;17.30;99.90
782;DHT22;374;52.568;13.402;2023-06-24T06:35:11;17.60;99.90
782;DHT22;374;52.568;13.402;2023-06-24T06:37:37;17.20;99.90
782;DHT22;374;52.568;13.402;2023-06-24T06:40:02;18.40;99.90
782;DHT22;374;52.568;13.402;2023-06-24T06:42:29;17.20;99.90
782;DHT22;374;52.568;13.402;2023-06-24T06:44:54;18.20;99.90
782;DHT22;374;52.568;13.402;2023-06-24T06:47:20;18.10;99.90
782;DHT22;374;52.568;13.402;2023-06-24T06:49:45;17.00;99.90
782;DHT22;374;52.568;13.402;2023-06-24T06:52:11;17.00;99.90
782;DHT22;374;52.568;13.402;2023-06-24T06:54:36;17.10;99.90
782;DHT22;374;52.568;13.402;2023-06-24T06:57:02;17.20;99.90
782;DHT22;374;52.568;13.402;2023-06-24T06:59:29;17.90;99.90
782;DHT22;374;52.568;13.402;2023-06-24T07:01:55;18.50;99.90
782;DHT22;374;52.568;13.402;2023-06-24T07:04:20;18.50;99.90
782;DHT22;374;52.568;13.402;2023-06-24T07:06:46;18.50;99.90
782;DHT22;374;52.568;13.402;2023-06-24T07:09:11;17.90;99.90
782;DHT22;374;52.568;13.402;2023-06-24T07:11:37;17.60;99.90
782;DHT22;374;52.568;13.402;2023-06-24T07:14:02;17.40;99.90
782;DHT22;374;52.568;13.402;2023-06-24T07:16:28;18.00;99.90
782;DHT22;374;52.568;13.402;2023-06-24T07:18:53;17.50;99.90
782;DHT22;374;52.568;13.402;2023-06-24T07:21:19;17.90;99.90
782;DHT22;374;52.568;13.402;2023-06-24T07:23:44;18.10;99.90
782;DHT22;374;52.568;13.402;2023-06-24T07:26:10;17.40;99.90
782;DHT22;374;52.568;13.402;2023-06-24T07:28:35;17.90;99.90
782;DHT22;374;52.568;13.402;2023-06-24T07:31:01;18.60;99.90
782;DHT22;374;52.568;13.402;2023-06-24T07:33:26;17.70;99.90
782;DHT22;374;52.568;13.402;2023-06-24T07:35:52;17.60;99.90
782;DHT22;374;52.568;13.402;2023-06-24T07:38:17;17.80;99.90
782;DHT22;374;52.568;13.402;2023-06-24T07:40:43;18.20;99.90
782;DHT22;374;52.568;13.402;2023-06-24T07:43:08;18.50;99.90
782;DHT22;374;52.568;13.402;2023-06-24T07:45:34;18.30;99.90
782;DHT22;374;52.568;13.402;2023-06-24T07:47:59;18.10;99.90
782;DHT22;374;52.568;13.402;2023-06-24T07:50:25;17.90;99.90
782;DHT22;374;52.568;13.402;2023-06-24T07:52:50;18.40;99.90
782;DHT22;374;52.568;13.402;2023-06-24T07:55:16;18.40;99.90
782;DHT22;374;52.568;13.402;2023-06-24T07:57:45;18.10;99.90
782;DHT22;374;52.568;13.402;2023-06-24T08:00:11;18.60;99.90
782;DHT22;374;52.568;13.402;2023-06-24T08:02:37;18.50;99.90
782;DHT22;374;52.568;13.402;2023-06-24T08:05:02;18.00;99.90
782;DHT22;374;52.568;13.402;2023-06-24T08:07:28;18.50;99.90
782;DHT22;374;52.568;13.402;2023-06-24T08:09:53;18.40;99.90
782;DHT22;374;52.568;13.402;2023-06-24T08:12:19;17.90;99.90
782;DHT22;374;52.568;13.402;2023-06-24T08:14:44;17.80;99.90
782;DHT22;374;52.568;13.402;2023-06-24T08:17:10;17.80;99.90
782;DHT22;374;52.568;13.402;2023-06-24T08:19:35;18.80;99.90
782;DHT22;374;52.568;13.402;2023-06-24T08:22:01;18.50;99.90
782;DHT22;374;52.568;13.402;2023-06-24T08:24:26;18.40;99.90
782;DHT22;374;52.568;13.402;2023-06-24T08:26:52;19.00;99.90
782;DHT22;374;52.568;13.402;2023-06-24T08:29:18;18.40;99.90
782;DHT22;374;52.568;13.402;2023-06-24T08:31:43;19.00;99.90
782;DHT22;374;52.568;13.402;2023-06-24T08:34:09;18.70;99.90
782;DHT22;374;52.568;13.402;2023-06-24T08:36:34;19.30;99.90
782;DHT22;374;52.568;13.402;2023-06-24T08:39:01;18.20;99.90
782;DHT22;374;52.568;13.402;2023-06-24T08:41:27;18.40;99.90
782;DHT22;374;52.568;13.402;2023-06-24T08:43:53;18.80;99.90
782;DHT22;374;52.568;13.402;2023-06-24T08:46:19;18.30;99.90
782;DHT22;374;52.568;13.402;2023-06-24T08:48:45;19.00;99.90
782;DHT22;374;52.568;13.402;2023-06-24T08:51:15;18.80;99.90
782;DHT22;374;52.568;13.402;2023-06-24T08:53:43;18.60;99.90
782;DHT22;374;52.568;13.402;2023-06-24T08:56:09;18.80;99.90
782;DHT22;374;52.568;13.402;2023-06-24T08:58:35;19.50;99.90
782;DHT22;374;52.568;13.402;2023-06-24T09:01:02;19.60;99.90
782;DHT22;374;52.568;13.402;2023-06-24T09:03:27;18.90;99.90
782;DHT22;374;52.568;13.402;2023-06-24T09:05:53;19.70;99.90
782;DHT22;374;52.568;13.402;2023-06-24T09:08:18;19.30;99.90
782;DHT22;374;52.568;13.402;2023-06-24T09:10:53;19.20;99.90
782;DHT22;374;52.568;13.402;2023-06-24T09:13:28;19.70;99.90
782;DHT22;374;52.568;13.402;2023-06-24T09:15:59;18.90;99.90
782;DHT22;374;52.568;13.402;2023-06-24T09:18:31;19.80;99.90
782;DHT22;374;52.568;13.402;2023-06-24T09:20:57;19.50;99.90
782;DHT22;374;52.568;13.402;2023-06-24T09:23:25;19.90;99.90
782;DHT22;374;52.568;13.402;2023-06-24T09:25:58;19.90;99.90
782;DHT22;374;52.568;13.402;2023-06-24T09:28:27;20.00;99.90
782;DHT22;374;52.568;13.402;2023-06-24T09:31:09;19.70;99.90
782;DHT22;374;52.568;13.402;2023-06-24T09:33:35;19.40;99.90
782;DHT22;374;52.568;13.402;2023-06-24T09:36:04;19.40;99.90
782;DHT22;374;52.568;13.402;2023-06-24T09:38:37;19.60;99.90
782;DHT22;374;52.568;13.402;2023-06-24T09:41:04;19.70;99.90
782;DHT22;374;52.568;13.402;2023-06-24T09:43:34;20.10;99.90
782;DHT22;374;52.568;13.402;2023-06-24T09:46:01;19.90;99.90
782;DHT22;374;52.568;13.402;2023-06-24T09:48:27;19.70;99.90
782;DHT22;374;52.568;13.402;2023-06-24T09:50:59;19.70;99.90
782;DHT22;374;52.568;13.402;2023-06-24T09:53:25;20.10;99.90
782;DHT22;374;52.568;13.402;2023-06-24T09:55:52;19.80;99.90
782;DHT22;374;52.568;13.402;2023-06-24T09:58:19;20.00;99.90
782;DHT22;374;52.568;13.402;2023-06-24T10:00:45;19.70;99.90
782;DHT22;374;52.568;13.402;2023-06-24T10:03:11;19.80;99.90
782;DHT22;374;52.568;13.402;2023-06-24T10:05:37;20.20;99.90
782;DHT22;374;52.568;13.402;2023-06-24T10:08:04;20.30;99.90
782;DHT22;374;52.568;13.402;2023-06-24T10:10:31;20.20;99.90
782;DHT22;374;52.568;13.402;2023-06-24T10:12:57;20.00;99.90
782;DHT22;374;52.568;13.402;2023-06-24T10:15:22;20.00;99.90
782;DHT22;374;52.568;13.402;2023-06-24T10:17:50;20.10;99.90
782;DHT22;374;52.568;13.402;2023-06-24T10:20:24;20.20;99.90
782;DHT22;374;52.568;13.402;2023-06-24T10:22:51;20.30;99.90
782;DHT22;374;52.568;13.402;2023-06-24T10:25:16;20.30;99.90
782;DHT22;374;52.568;13.402;2023-06-24T10:27:43;20.30;99.90
782;DHT22;374;52.568;13.402;2023-06-24T10:30:17;20.10;99.90
782;DHT22;374;52.568;13.402;2023-06-24T10:32:43;20.40;99.90
782;DHT22;374;52.568;13.402;2023-06-24T10:35:22;20.20;99.90
782;DHT22;374;52.568;13.402;2023-06-24T10:37:57;20.20;99.90
782;DHT22;374;52.568;13.402;2023-06-24T10:40:39;20.20;99.90
782;DHT22;374;52.568;13.402;2023-06-24T10:45:51;20.30;99.90
782;DHT22;374;52.568;13.402;2023-06-24T10:48:17;20.20;99.90
782;DHT22;374;52.568;13.402;2023-06-24T10:50:46;20.20;99.90
782;DHT22;374;52.568;13.402;2023-06-24T10:53:13;20.30;99.90
782;DHT22;374;52.568;13.402;2023-06-24T10:55:39;20.30;99.90
782;DHT22;374;52.568;13.402;2023-06-24T10:58:09;20.20;99.90
782;DHT22;374;52.568;13.402;2023-06-24T11:00:34;20.20;99.90
782;DHT22;374;52.568;13.402;2023-06-24T11:03:20;20.30;99.90
782;DHT22;374;52.568;13.402;2023-06-24T11:05:48;20.40;99.90
782;DHT22;374;52.568;13.402;2023-06-24T11:08:14;20.30;99.90
782;DHT22;374;52.568;13.402;2023-06-24T11:10:47;20.40;99.90
782;DHT22;374;52.568;13.402;2023-06-24T11:13:13;20.30;99.90
782;DHT22;374;52.568;13.402;2023-06-24T11:15:40;20.40;99.90
782;DHT22;374;52.568;13.402;2023-06-24T11:18:08;20.40;99.90
782;DHT22;374;52.568;13.402;2023-06-24T11:20:36;20.40;99.90
782;DHT22;374;52.568;13.402;2023-06-24T11:23:08;20.50;99.90
782;DHT22;374;52.568;13.402;2023-06-24T11:25:40;20.50;99.90
782;DHT22;374;52.568;13.402;2023-06-24T11:28:16;20.40;99.90
782;DHT22;374;52.568;13.402;2023-06-24T11:30:42;20.40;99.90
782;DHT22;374;52.568;13.402;2023-06-24T11:33:08;20.40;99.90
782;DHT22;374;52.568;13.402;2023-06-24T11:35:33;20.50;99.90
782;DHT22;374;52.568;13.402;2023-06-24T11:38:01;20.60;99.90
782;DHT22;374;52.568;13.402;2023-06-24T11:40:26;20.40;99.90
782;DHT22;374;52.568;13.402;2023-06-24T11:42:52;20.40;99.90
782;DHT22;374;52.568;13.402;2023-06-24T11:45:20;20.40;99.90
782;DHT22;374;52.568;13.402;2023-06-24T11:47:46;20.40;99.90
782;DHT22;374;52.568;13.402;2023-06-24T11:50:14;20.40;99.90
782;DHT22;374;52.568;13.402;2023-06-24T11:52:43;20.40;99.90
782;DHT22;374;52.568;13.402;2023-06-24T11:55:22;20.50;99.90
782;DHT22;374;52.568;13.402;2023-06-24T11:58:02;20.40;99.90
782;DHT22;374;52.568;13.402;2023-06-24T12:00:31;20.50;99.90
782;DHT22;374;52.568;13.402;2023-06-24T12:03:00;20.50;99.90
782;DHT22;374;52.568;13.402;2023-06-24T12:05:31;20.50;99.90
782;DHT22;374;52.568;13.402;2023-06-24T12:07:58;20.50;99.90
782;DHT22;374;52.568;13.402;2023-06-24T12:10:25;20.50;99.90
782;DHT22;374;52.568;13.402;2023-06-24T12:12:51;20.50;99.90
782;DHT22;374;52.568;13.402;2023-06-24T12:15:16;20.50;99.90
782;DHT22;374;52.568;13.402;2023-06-24T12:17:42;20.50;99.90
782;DHT22;374;52.568;13.402;2023-06-24T12:20:08;20.50;99.90
782;DHT22;374;52.568;13.402;2023-06-24T12:22:33;20.50;99.90
782;DHT22;374;52.568;13.402;2023-06-24T12:24:59;20.50;99.90
782;DHT22;374;52.568;13.402;2023-06-24T12:27:24;20.60;99.90
782;DHT22;374;52.568;13.402;2023-06-24T12:29:50;20.60;99.90
782;DHT22;374;52.568;13.402;2023-06-24T12:32:15;20.60;99.90
782;DHT22;374;52.568;13.402;2023-06-24T12:34:41;20.60;99.90
782;DHT22;374;52.568;13.402;2023-06-24T12:37:06;20.60;99.90
782;DHT22;374;52.568;13.402;2023-06-24T12:39:32;20.60;99.90
782;DHT22;374;52.568;13.402;2023-06-24T12:41:57;20.70;99.90
782;DHT22;374;52.568;13.402;2023-06-24T12:44:23;20.60;99.90
782;DHT22;374;52.568;13.402;2023-06-24T12:46:48;20.60;99.90
782;DHT22;374;52.568;13.402;2023-06-24T12:49:14;20.70;99.90
782;DHT22;374;52.568;13.402;2023-06-24T12:51:39;20.70;99.90
782;DHT22;374;52.568;13.402;2023-06-24T12:54:05;20.70;99.90
782;DHT22;374;52.568;13.402;2023-06-24T12:56:30;20.70;99.90
782;DHT22;374;52.568;13.402;2023-06-24T12:58:56;20.80;99.90
782;DHT22;374;52.568;13.402;2023-06-24T13:01:21;20.80;99.90
782;DHT22;374;52.568;13.402;2023-06-24T13:03:47;20.80;99.90
782;DHT22;374;52.568;13.402;2023-06-24T13:06:12;20.80;99.90
782;DHT22;374;52.568;13.402;2023-06-24T13:08:39;20.80;99.90
782;DHT22;374;52.568;13.402;2023-06-24T13:11:04;20.80;99.90
782;DHT22;374;52.568;13.402;2023-06-24T13:13:30;20.80;99.90
782;DHT22;374;52.568;13.402;2023-06-24T13:15:55;20.80;99.90
782;DHT22;374;52.568;13.402;2023-06-24T13:18:21;20.80;99.90
782;DHT22;374;52.568;13.402;2023-06-24T13:20:46;20.80;99.90
782;DHT22;374;52.568;13.402;2023-06-24T13:23:12;20.90;99.90
782;DHT22;374;52.568;13.402;2023-06-24T13:25:37;20.90;99.90
782;DHT22;374;52.568;13.402;2023-06-24T13:28:03;20.90;99.90
782;DHT22;374;52.568;13.402;2023-06-24T13:30:29;20.90;99.90
782;DHT22;374;52.568;13.402;2023-06-24T13:32:54;20.90;99.90
782;DHT22;374;52.568;13.402;2023-06-24T13:35:20;20.90;99.90
782;DHT22;374;52.568;13.402;2023-06-24T13:37:45;20.90;99.90
782;DHT22;374;52.568;13.402;2023-06-24T13:40:14;21.00;99.90
782;DHT22;374;52.568;13.402;2023-06-24T13:42:39;21.00;99.90
782;DHT22;374;52.568;13.402;2023-06-24T13:45:05;21.00;99.90
782;DHT22;374;52.568;13.402;2023-06-24T13:47:31;21.00;99.90
782;DHT22;374;52.568;13.402;2023-06-24T13:49:56;21.00;99.90
782;DHT22;374;52.568;13.402;2023-06-24T13:52:24;21.00;99.90
782;DHT22;374;52.568;13.402;2023-06-24T13:54:50;21.00;99.90
782;DHT22;374;52.568;13.402;2023-06-24T13:57:18;21.00;99.90
782;DHT22;374;52.568;13.402;2023-06-24T13:59:44;21.10;99.90
782;DHT22;374;52.568;13.402;2023-06-24T14:02:09;21.00;99.90
782;DHT22;374;52.568;13.402;2023-06-24T14:04:37;21.00;99.90
782;DHT22;374;52.568;13.402;2023-06-24T14:07:02;21.00;99.90
782;DHT22;374;52.568;13.402;2023-06-24T14:09:30;21.00;99.90
782;DHT22;374;52.568;13.402;2023-06-24T14:11:55;21.10;99.90
782;DHT22;374;52.568;13.402;2023-06-24T14:14:21;21.00;99.90
782;DHT22;374;52.568;13.402;2023-06-24T14:16:47;21.10;99.90
782;DHT22;374;52.568;13.402;2023-06-24T14:19:12;21.10;99.90
782;DHT22;374;52.568;13.402;2023-06-24T14:21:38;21.10;99.90
782;DHT22;374;52.568;13.402;2023-06-24T14:24:05;21.20;99.90
782;DHT22;374;52.568;13.402;2023-06-24T14:26:32;21.20;99.90
782;DHT22;374;52.568;13.402;2023-06-24T14:28:57;21.20;99.90
782;DHT22;374;52.568;13.402;2023-06-24T14:31:23;21.20;99.90
782;DHT22;374;52.568;13.402;2023-06-24T14:33:48;21.20;99.90
782;DHT22;374;52.568;13.402;2023-06-24T14:36:14;21.20;99.90
782;DHT22;374;52.568;13.402;2023-06-24T14:38:39;21.20;99.90
782;DHT22;374;52.568;13.402;2023-06-24T14:41:06;21.20;99.90
782;DHT22;374;52.568;13.402;2023-06-24T14:43:32;21.20;99.90
782;DHT22;374;52.568;13.402;2023-06-24T14:45:58;21.20;99.90
782;DHT22;374;52.568;13.402;2023-06-24T14:48:23;21.30;99.90
782;DHT22;374;52.568;13.402;2023-06-24T14:50:49;21.30;99.90
782;DHT22;374;52.568;13.402;2023-06-24T14:53:14;21.30;99.90
782;DHT22;374;52.568;13.402;2023-06-24T14:55:40;21.30;99.90
782;DHT22;374;52.568;13.402;2023-06-24T14:58:05;21.20;99.90
782;DHT22;374;52.568;13.402;2023-06-24T15:00:31;21.30;99.90
782;DHT22;374;52.568;13.402;2023-06-24T15:02:56;21.40;99.90
782;DHT22;374;52.568;13.402;2023-06-24T15:05:22;21.30;99.90
782;DHT22;374;52.568;13.402;2023-06-24T15:07:50;21.30;99.90
782;DHT22;374;52.568;13.402;2023-06-24T15:10:16;21.30;99.90
782;DHT22;374;52.568;13.402;2023-06-24T15:12:41;21.30;99.90
782;DHT22;374;52.568;13.402;2023-06-24T15:15:10;21.30;99.90
782;DHT22;374;52.568;13.402;2023-06-24T15:17:35;21.40;99.90
782;DHT22;374;52.568;13.402;2023-06-24T15:20:06;21.40;99.90
782;DHT22;374;52.568;13.402;2023-06-24T15:22:34;21.40;99.90
782;DHT22;374;52.568;13.402;2023-06-24T15:25:00;21.40;99.90
782;DHT22;374;52.568;13.402;2023-06-24T15:27:25;21.40;99.90
782;DHT22;374;52.568;13.402;2023-06-24T15:29:51;21.40;99.90
782;DHT22;374;52.568;13.402;2023-06-24T15:32:16;21.40;99.90
782;DHT22;374;52.568;13.402;2023-06-24T15:34:42;21.40;99.90
782;DHT22;374;52.568;13.402;2023-06-24T15:37:08;21.50;99.90
782;DHT22;374;52.568;13.402;2023-06-24T15:39:33;21.50;99.90
782;DHT22;374;52.568;13.402;2023-06-24T15:41:59;21.50;99.90
782;DHT22;374;52.568;13.402;2023-06-24T15:44:24;21.50;99.90
782;DHT22;374;52.568;13.402;2023-06-24T15:46:50;21.50;99.90
782;DHT22;374;52.568;13.402;2023-06-24T15:49:15;21.50;99.90
782;DHT22;374;52.568;13.402;2023-06-24T15:51:41;21.50;99.90
782;DHT22;374;52.568;13.402;2023-06-24T15:54:07;21.50;99.90
782;DHT22;374;52.568;13.402;2023-06-24T15:56:32;21.60;99.90
782;DHT22;374;52.568;13.402;2023-06-24T15:58:58;21.60;99.90
782;DHT22;374;52.568;13.402;2023-06-24T16:01:23;21.60;99.90
782;DHT22;374;52.568;13.402;2023-06-24T16:03:49;21.60;99.90
782;DHT22;374;52.568;13.402;2023-06-24T16:06:14;21.60;99.90
782;DHT22;374;52.568;13.402;2023-06-24T16:08:40;21.50;99.90
782;DHT22;374;52.568;13.402;2023-06-24T16:11:05;21.60;99.90
782;DHT22;374;52.568;13.402;2023-06-24T16:13:31;21.60;99.90
782;DHT22;374;52.568;13.402;2023-06-24T16:15:57;21.60;99.90
782;DHT22;374;52.568;13.402;2023-06-24T16:18:23;21.60;99.90
782;DHT22;374;52.568;13.402;2023-06-24T16:20:49;21.60;99.90
782;DHT22;374;52.568;13.402;2023-06-24T16:23:14;21.60;99.90
782;DHT22;374;52.568;13.402;2023-06-24T16:25:40;21.60;99.90